Terminal Aerodrome Forecast
Issued by NWS

Home | Current Version | Previous Version | Text Only | Print | Product List | Glossary On
Versions: 1 2 3 4 5 6 7 8 9 10 11 12 13 14 15 16 17 18 19 20 21 22 23 24 25 26
000
FTUS46 KMTR 281729
TAFSFO
TAF
KSFO 281729Z 2818/2924 04004KT P6SM SKC
     FM282100 30017G24KT P6SM SKC
     FM290400 28015KT P6SM SKC
     FM290600 29010KT P6SM SKC
     FM290900 29005KT P6SM FEW010
     FM292000 31016G22KT P6SM SKC=

USA.gov is the U.S. government's official web portal to all federal, state and local government web resources and services.